createdAt,value
2022-08-14T00:01:03.976Z,19.08
2022-08-14T00:03:38.143Z,19.06
2022-08-14T00:06:25.875Z,19.02
2022-08-14T00:08:54.357Z,18.98
2022-08-14T00:11:27.017Z,18.97
2022-08-14T00:13:57.966Z,18.92
2022-08-14T00:16:41.470Z,18.90
2022-08-14T00:19:19.182Z,18.85
2022-08-14T00:21:50.156Z,18.80
2022-08-14T00:24:23.305Z,18.77
2022-08-14T00:26:55.514Z,18.63
2022-08-14T00:29:25.246Z,18.68
2022-08-14T00:31:53.928Z,18.68
2022-08-14T00:34:36.321Z,18.63
2022-08-14T00:37:04.895Z,18.59
2022-08-14T00:39:31.836Z,18.55
2022-08-14T00:41:58.535Z,18.51
2022-08-14T00:44:32.218Z,18.46
2022-08-14T00:47:03.831Z,18.44
2022-08-14T00:49:38.216Z,18.40
2022-08-14T00:52:14.054Z,18.37
2022-08-14T00:54:42.677Z,18.34
2022-08-14T00:57:09.773Z,18.31
2022-08-14T00:59:36.711Z,18.26
2022-08-14T01:02:06.768Z,18.23
2022-08-14T01:04:54.025Z,18.19
2022-08-14T01:07:23.106Z,18.14
2022-08-14T01:09:54.875Z,18.11
2022-08-14T01:12:26.526Z,18.07
2022-08-14T01:14:58.256Z,18.01
2022-08-14T01:17:26.467Z,17.97
2022-08-14T01:19:54.664Z,17.93
2022-08-14T01:22:21.146Z,17.79
2022-08-14T01:24:53.753Z,17.84
2022-08-14T01:27:24.281Z,17.82
2022-08-14T01:30:03.149Z,17.80
2022-08-14T01:32:42.532Z,17.78
2022-08-14T01:35:20.332Z,17.76
2022-08-14T01:37:57.653Z,17.73
2022-08-14T01:40:36.414Z,17.74
2022-08-14T01:43:18.543Z,17.72
2022-08-14T01:45:57.624Z,17.72
2022-08-14T01:48:33.805Z,17.72
2022-08-14T01:51:05.867Z,17.70
2022-08-14T01:53:48.120Z,17.68
2022-08-14T01:56:23.311Z,17.67
2022-08-14T01:58:57.926Z,17.65
2022-08-14T02:01:26.591Z,17.64
2022-08-14T02:03:57.170Z,17.62
2022-08-14T02:06:32.098Z,17.58
2022-08-14T02:09:00.116Z,17.55
2022-08-14T02:11:26.660Z,17.51
2022-08-14T02:13:58.817Z,17.48
2022-08-14T02:16:30.553Z,17.46
2022-08-14T02:19:00.258Z,17.43
2022-08-14T02:21:30.199Z,17.40
2022-08-14T02:24:40.072Z,17.38
2022-08-14T02:28:23.959Z,17.33
2022-08-14T02:30:00.413Z,17.32
2022-08-14T02:32:36.781Z,17.29
2022-08-14T02:35:10.553Z,17.27
2022-08-14T02:37:47.168Z,17.25
2022-08-14T02:40:15.696Z,17.22
2022-08-14T02:42:54.819Z,17.19
2022-08-14T02:45:25.541Z,17.17
2022-08-14T02:48:03.541Z,17.15
2022-08-14T02:50:33.717Z,17.12
2022-08-14T02:53:03.043Z,17.11
2022-08-14T02:55:30.722Z,17.08
2022-08-14T02:58:03.232Z,17.01
2022-08-14T03:00:32.059Z,16.99
2022-08-14T03:02:59.751Z,16.94
2022-08-14T03:05:27.279Z,16.88
2022-08-14T03:07:53.869Z,16.84
2022-08-14T03:10:26.876Z,16.81
2022-08-14T03:12:58.494Z,16.78
2022-08-14T03:15:25.446Z,16.76
2022-08-14T03:17:57.487Z,16.74
2022-08-14T03:20:29.293Z,16.73
2022-08-14T03:22:57.831Z,16.72
2022-08-14T03:25:24.643Z,16.69
2022-08-14T03:27:58.510Z,16.69
2022-08-14T03:30:39.014Z,16.68
2022-08-14T03:33:10.333Z,16.66
2022-08-14T03:35:40.353Z,16.64
2022-08-14T03:39:14.168Z,16.62
2022-08-14T03:41:12.853Z,16.63
2022-08-14T03:43:41.754Z,16.61
2022-08-14T03:46:39.101Z,16.59
2022-08-14T03:48:55.907Z,16.57
2022-08-14T03:51:24.551Z,16.55
2022-08-14T03:53:51.200Z,16.52
2022-08-14T03:56:21.357Z,16.49
2022-08-14T03:58:50.100Z,16.46
2022-08-14T04:01:20.540Z,16.44
2022-08-14T04:03:48.477Z,16.43
2022-08-14T04:06:21.454Z,16.42
2022-08-14T04:08:55.136Z,16.44
2022-08-14T04:11:25.115Z,16.47
2022-08-14T04:13:51.724Z,16.50
2022-08-14T04:16:19.958Z,16.54
2022-08-14T04:18:51.818Z,16.60
2022-08-14T04:21:19.709Z,16.65
2022-08-14T04:23:49.045Z,16.71
2022-08-14T04:26:27.441Z,16.76
2022-08-14T04:29:14.758Z,16.83
2022-08-14T04:33:10.698Z,16.89
2022-08-14T04:34:29.320Z,16.95
2022-08-14T04:36:56.826Z,17.01
2022-08-14T04:39:23.501Z,17.07
2022-08-14T04:41:50.383Z,17.11
2022-08-14T04:44:36.332Z,17.15
2022-08-14T04:47:04.307Z,17.20
2022-08-14T04:49:33.343Z,17.24
2022-08-14T04:52:15.555Z,17.28
2022-08-14T04:54:51.209Z,17.34
2022-08-14T04:57:17.760Z,17.40
2022-08-14T04:59:45.994Z,17.45
2022-08-14T05:02:12.744Z,17.52
2022-08-14T05:04:39.792Z,17.59
2022-08-14T05:07:11.620Z,17.67
2022-08-14T05:09:38.274Z,17.74
2022-08-14T05:13:13.212Z,17.82
2022-08-14T05:15:01.420Z,17.91
2022-08-14T05:17:31.992Z,18.00
2022-08-14T05:21:04.965Z,18.12
2022-08-14T05:22:57.753Z,18.22
2022-08-14T05:25:25.854Z,18.31
2022-08-14T05:27:57.770Z,18.41
2022-08-14T05:30:25.559Z,18.48
2022-08-14T05:32:52.317Z,18.59
2022-08-14T05:35:19.061Z,18.68
2022-08-14T05:37:48.421Z,18.78
2022-08-14T05:40:16.244Z,18.87
2022-08-14T05:42:46.600Z,18.97
2022-08-14T05:45:19.243Z,19.06
2022-08-14T05:47:46.296Z,19.15
2022-08-14T05:50:19.269Z,19.24
2022-08-14T05:52:47.778Z,19.32
2022-08-14T05:55:14.408Z,19.29
2022-08-14T05:57:47.127Z,19.46
2022-08-14T06:00:28.201Z,19.57
2022-08-14T06:02:56.806Z,19.64
2022-08-14T06:05:23.885Z,19.71
2022-08-14T06:07:57.389Z,19.79
2022-08-14T06:10:25.251Z,19.87
2022-08-14T06:13:05.831Z,19.93
2022-08-14T06:15:32.525Z,20.01
2022-08-14T06:18:00.439Z,20.11
2022-08-14T06:20:28.589Z,20.19
2022-08-14T06:22:57.253Z,20.24
2022-08-14T06:25:25.059Z,20.34
2022-08-14T06:27:53.590Z,20.40
2022-08-14T06:30:23.074Z,20.47
2022-08-14T06:32:52.959Z,20.59
2022-08-14T06:35:20.089Z,20.67
2022-08-14T06:37:49.085Z,20.74
2022-08-14T06:40:28.850Z,20.82
2022-08-14T06:43:00.445Z,20.91
2022-08-14T06:45:34.976Z,21.01
2022-08-14T06:48:06.335Z,21.10
2022-08-14T06:50:39.787Z,21.17
2022-08-14T06:53:06.615Z,21.27
2022-08-14T06:55:33.211Z,21.35
2022-08-14T06:57:59.735Z,21.45
2022-08-14T07:00:30.914Z,21.56
2022-08-14T07:02:58.798Z,21.65
2022-08-14T07:05:25.732Z,21.74
2022-08-14T07:07:52.268Z,21.85
2022-08-14T07:10:18.908Z,21.95
2022-08-14T07:13:00.940Z,22.04
2022-08-14T07:15:33.621Z,22.16
2022-08-14T07:18:01.870Z,22.26
2022-08-14T07:20:30.957Z,22.36
2022-08-14T07:23:08.048Z,22.44
2022-08-14T07:25:42.170Z,22.53
2022-08-14T07:28:21.336Z,22.62
2022-08-14T07:30:51.270Z,22.60
2022-08-14T07:33:24.821Z,22.80
2022-08-14T07:35:59.242Z,22.89
2022-08-14T07:38:28.841Z,22.96
2022-08-14T07:40:59.001Z,23.02
2022-08-14T07:43:26.188Z,23.10
2022-08-14T07:45:53.982Z,23.18
2022-08-14T07:48:25.201Z,23.15
2022-08-14T07:50:57.219Z,23.42
2022-08-14T07:53:29.902Z,23.49
2022-08-14T07:56:21.434Z,23.59
2022-08-14T07:58:51.773Z,23.68
2022-08-14T08:01:19.404Z,23.76
2022-08-14T08:03:49.587Z,23.83
2022-08-14T08:06:18.793Z,23.89
2022-08-14T08:09:01.130Z,23.98
2022-08-14T08:11:34.641Z,24.06
2022-08-14T08:14:05.812Z,24.18
2022-08-14T08:16:37.159Z,24.29
2022-08-14T08:19:12.471Z,24.38
2022-08-14T08:21:43.708Z,24.48
2022-08-14T08:24:12.450Z,24.58
2022-08-14T08:26:45.394Z,24.78
2022-08-14T08:29:20.183Z,24.89
2022-08-14T08:31:55.084Z,24.94
2022-08-14T08:34:24.137Z,24.98
2022-08-14T08:36:50.959Z,25.05
2022-08-14T08:39:22.452Z,25.13
2022-08-14T08:41:53.414Z,25.16
2022-08-14T08:44:32.813Z,25.24
2022-08-14T08:47:00.348Z,25.30
2022-08-14T08:49:36.663Z,25.37
2022-08-14T08:52:15.045Z,25.46
2022-08-14T08:54:54.124Z,25.52
2022-08-14T08:57:21.488Z,25.61
2022-08-14T08:59:48.282Z,25.68
2022-08-14T09:02:22.068Z,25.75
2022-08-14T09:04:53.733Z,25.87
2022-08-14T09:07:27.210Z,25.94
2022-08-14T09:09:58.978Z,26.04
2022-08-14T09:12:26.942Z,26.08
2022-08-14T09:14:57.255Z,26.12
2022-08-14T09:17:25.922Z,26.15
2022-08-14T09:19:53.852Z,26.20
2022-08-14T09:22:32.909Z,26.19
2022-08-14T09:25:07.158Z,26.23
2022-08-14T09:27:35.067Z,26.29
2022-08-14T09:30:01.928Z,26.33
2022-08-14T09:33:12.519Z,26.38
2022-08-14T09:36:18.453Z,26.47
2022-08-14T09:38:58.916Z,26.60
2022-08-14T09:42:21.502Z,26.67
2022-08-14T09:45:18.067Z,26.71
2022-08-14T09:47:46.131Z,26.86
2022-08-14T09:50:16.292Z,26.98
2022-08-14T09:52:57.385Z,27.07
2022-08-14T09:55:27.784Z,27.17
2022-08-14T09:58:09.073Z,27.20
2022-08-14T10:00:49.690Z,27.28
2022-08-14T10:03:53.865Z,27.30
2022-08-14T10:06:22.876Z,27.40
2022-08-14T10:09:05.054Z,27.47
2022-08-14T10:11:43.369Z,27.51
2022-08-14T10:14:20.933Z,27.61
2022-08-14T10:17:02.311Z,27.65
2022-08-14T10:19:35.931Z,27.73
2022-08-14T10:23:15.072Z,27.81
2022-08-14T10:24:56.560Z,27.91
2022-08-14T10:27:25.050Z,27.97
2022-08-14T10:29:58.112Z,28.05
2022-08-14T10:32:28.328Z,28.10
2022-08-14T10:35:14.535Z,28.26
2022-08-14T10:37:52.468Z,28.32
2022-08-14T10:40:43.810Z,28.34
2022-08-14T10:43:23.919Z,28.40
2022-08-14T10:45:59.729Z,28.50
2022-08-14T10:48:36.994Z,28.52
2022-08-14T10:51:08.459Z,28.59
2022-08-14T10:53:36.595Z,28.65
2022-08-14T10:56:21.561Z,28.68
2022-08-14T10:59:08.466Z,28.77
2022-08-14T11:01:38.380Z,28.84
2022-08-14T11:04:20.494Z,28.86
2022-08-14T11:06:53.874Z,28.94
2022-08-14T11:09:20.604Z,29.02
2022-08-14T11:11:56.369Z,29.09
2022-08-14T11:14:42.387Z,29.19
2022-08-14T11:17:09.784Z,29.22
2022-08-14T11:19:38.080Z,29.31
2022-08-14T11:22:05.034Z,29.44
2022-08-14T11:24:50.937Z,29.48
2022-08-14T11:27:22.797Z,29.55
2022-08-14T11:30:50.782Z,29.57
2022-08-14T11:32:52.384Z,29.64
2022-08-14T11:35:22.109Z,29.72
2022-08-14T11:37:50.862Z,29.84
2022-08-14T11:40:19.932Z,29.89
2022-08-14T11:42:59.248Z,29.94
2022-08-14T11:45:29.760Z,30.02
2022-08-14T11:48:12.687Z,30.08
2022-08-14T11:50:44.241Z,30.14
2022-08-14T11:53:27.050Z,30.18
2022-08-14T11:55:59.120Z,30.29
2022-08-14T11:58:28.731Z,30.32
2022-08-14T12:01:01.003Z,30.38
2022-08-14T12:03:57.044Z,30.41
2022-08-14T12:06:28.797Z,30.41
2022-08-14T12:09:08.526Z,30.42
2022-08-14T12:11:43.865Z,30.47
2022-08-14T12:14:30.417Z,30.52
2022-08-14T12:17:12.504Z,30.68
2022-08-14T12:19:51.263Z,30.72
2022-08-14T12:22:29.889Z,30.79
2022-08-14T12:24:57.325Z,30.84
2022-08-14T12:27:37.867Z,30.85
2022-08-14T12:30:09.851Z,30.90
2022-08-14T12:32:45.349Z,30.92
2022-08-14T12:35:11.942Z,30.94
2022-08-14T12:37:40.116Z,30.96
2022-08-14T12:40:20.644Z,31.00
2022-08-14T12:42:53.739Z,31.11
2022-08-14T12:45:30.849Z,31.23
2022-08-14T12:48:00.769Z,31.37
2022-08-14T12:50:49.847Z,31.43
2022-08-14T12:53:17.510Z,31.49
2022-08-14T12:56:18.281Z,31.47
2022-08-14T12:58:51.962Z,31.51
2022-08-14T13:01:21.857Z,31.59
2022-08-14T13:03:52.023Z,31.64
2022-08-14T13:06:19.841Z,31.67
2022-08-14T13:08:53.286Z,31.75
2022-08-14T13:11:24.060Z,31.81
2022-08-14T13:13:58.146Z,31.87
2022-08-14T13:16:37.969Z,31.97
2022-08-14T13:19:11.646Z,31.98
2022-08-14T13:22:04.713Z,32.01
2022-08-14T13:24:29.846Z,32.05
2022-08-14T13:27:01.297Z,32.07
2022-08-14T13:29:31.497Z,32.07
2022-08-14T13:31:58.626Z,32.08
2022-08-14T13:34:29.372Z,32.05
2022-08-14T13:36:59.315Z,32.07
2022-08-14T13:39:30.716Z,32.14
2022-08-14T13:42:05.336Z,32.18
2022-08-14T13:44:35.743Z,32.20
2022-08-14T13:47:03.920Z,32.24
2022-08-14T13:49:30.591Z,32.27
2022-08-14T13:52:02.997Z,32.31
2022-08-14T13:54:45.283Z,32.33
2022-08-14T13:57:15.035Z,32.37
2022-08-14T13:59:46.380Z,32.42
2022-08-14T14:02:31.973Z,32.47
2022-08-14T14:05:03.460Z,32.57
2022-08-14T14:07:33.261Z,32.67
2022-08-14T14:10:06.205Z,32.74
2022-08-14T14:12:38.571Z,32.80
2022-08-14T14:15:28.488Z,32.73
2022-08-14T14:18:00.944Z,32.69
2022-08-14T14:20:34.212Z,32.64
2022-08-14T14:23:03.514Z,32.66
2022-08-14T14:25:48.666Z,32.71
2022-08-14T14:28:24.109Z,32.84
2022-08-14T14:30:54.339Z,32.98
2022-08-14T14:33:45.301Z,33.09
2022-08-14T14:36:12.172Z,33.26
2022-08-14T14:38:43.337Z,33.44
2022-08-14T14:41:14.634Z,33.66
2022-08-14T14:43:44.979Z,33.87
2022-08-14T14:46:13.278Z,34.07
2022-08-14T14:48:40.318Z,34.29
2022-08-14T14:51:16.712Z,34.47
2022-08-14T14:53:44.822Z,34.74
2022-08-14T14:56:51.688Z,34.96
2022-08-14T14:58:58.419Z,35.22
2022-08-14T15:01:25.203Z,35.41
2022-08-14T15:03:52.843Z,35.63
2022-08-14T15:06:31.907Z,35.86
2022-08-14T15:09:01.244Z,36.17
2022-08-14T15:11:30.380Z,36.35
2022-08-14T15:14:00.145Z,36.46
2022-08-14T15:16:27.819Z,36.65
2022-08-14T15:18:54.767Z,36.70
2022-08-14T15:21:21.592Z,36.55
2022-08-14T15:23:49.721Z,36.49
2022-08-14T15:26:23.718Z,36.54
2022-08-14T15:29:02.364Z,36.59
2022-08-14T15:31:31.596Z,36.68
2022-08-14T15:34:33.377Z,36.83
2022-08-14T15:36:44.935Z,36.83
2022-08-14T15:39:13.487Z,36.70
2022-08-14T15:41:42.153Z,36.60
2022-08-14T15:44:25.355Z,36.61
2022-08-14T15:46:53.859Z,36.73
2022-08-14T15:49:22.179Z,36.85
2022-08-14T15:51:50.939Z,36.93
2022-08-14T15:54:17.883Z,37.09
2022-08-14T15:57:00.375Z,37.16
2022-08-14T15:59:27.988Z,37.35
2022-08-14T16:01:55.678Z,37.44
2022-08-14T16:04:22.699Z,37.53
2022-08-14T16:06:54.864Z,37.64
2022-08-14T16:09:22.904Z,37.72
2022-08-14T16:11:53.921Z,37.78
2022-08-14T16:14:21.864Z,37.93
2022-08-14T16:16:59.927Z,37.92
2022-08-14T16:19:28.374Z,38.01
2022-08-14T16:22:56.926Z,38.02
2022-08-14T16:25:02.041Z,38.08
2022-08-14T16:27:34.244Z,38.16
2022-08-14T16:30:10.683Z,38.22
2022-08-14T16:32:55.887Z,38.26
2022-08-14T16:35:43.459Z,38.29
2022-08-14T16:38:44.827Z,38.36
2022-08-14T16:41:06.727Z,38.44
2022-08-14T16:43:33.652Z,38.51
2022-08-14T16:46:00.632Z,38.59
2022-08-14T16:48:55.177Z,38.69
2022-08-14T16:51:14.940Z,38.77
2022-08-14T16:53:41.844Z,38.85
2022-08-14T16:56:17.215Z,38.83
2022-08-14T16:58:50.194Z,38.72
2022-08-14T17:01:25.171Z,38.53
2022-08-14T17:04:03.426Z,38.28
2022-08-14T17:06:38.894Z,37.88
2022-08-14T17:09:35.811Z,37.59
2022-08-14T17:12:07.545Z,37.27
2022-08-14T17:14:58.856Z,36.77
2022-08-14T17:17:43.468Z,36.40
2022-08-14T17:20:53.631Z,36.06
2022-08-14T17:22:58.991Z,35.80
2022-08-14T17:25:34.278Z,35.64
2022-08-14T17:28:52.719Z,35.57
2022-08-14T17:31:08.227Z,35.62
2022-08-14T17:33:40.211Z,35.59
2022-08-14T17:36:20.743Z,35.52
2022-08-14T17:39:11.940Z,35.31
2022-08-14T17:42:02.052Z,35.10
2022-08-14T17:44:45.165Z,34.80
2022-08-14T17:47:13.237Z,34.51
2022-08-14T17:49:51.903Z,34.28
2022-08-14T17:52:34.339Z,34.08
2022-08-14T17:55:04.080Z,33.80
2022-08-14T17:57:35.463Z,33.53
2022-08-14T18:00:16.843Z,33.20
2022-08-14T18:02:50.608Z,32.93
2022-08-14T18:05:22.865Z,32.62
2022-08-14T18:08:32.181Z,32.33
2022-08-14T18:10:55.151Z,32.01
2022-08-14T18:13:49.973Z,31.71
2022-08-14T18:16:19.709Z,31.41
2022-08-14T18:18:48.653Z,31.17
2022-08-14T18:21:39.795Z,30.92
2022-08-14T18:24:03.204Z,30.66
2022-08-14T18:26:37.730Z,30.45
2022-08-14T18:29:11.472Z,30.23
2022-08-14T18:31:45.234Z,30.01
2022-08-14T18:34:30.651Z,29.79
2022-08-14T18:37:09.465Z,29.59
2022-08-14T18:40:03.211Z,29.38
2022-08-14T18:42:30.548Z,29.20
2022-08-14T18:44:57.208Z,29.02
2022-08-14T18:47:25.523Z,28.87
2022-08-14T18:49:55.272Z,28.71
2022-08-14T18:52:29.654Z,28.54
2022-08-14T18:54:59.591Z,28.39
2022-08-14T18:57:26.456Z,28.25
2022-08-14T18:59:53.920Z,28.11
2022-08-14T19:02:30.651Z,27.96
2022-08-14T19:05:02.695Z,27.84
2022-08-14T19:07:35.440Z,27.70
2022-08-14T19:10:08.045Z,27.57
2022-08-14T19:12:52.912Z,27.41
2022-08-14T19:15:25.822Z,27.31
2022-08-14T19:18:14.737Z,27.20
2022-08-14T19:20:52.540Z,27.05
2022-08-14T19:23:23.020Z,26.96
2022-08-14T19:25:54.528Z,26.85
2022-08-14T19:28:31.786Z,26.77
2022-08-14T19:31:23.572Z,26.63
2022-08-14T19:33:51.246Z,26.56
2022-08-14T19:36:28.851Z,26.47
2022-08-14T19:39:04.042Z,26.37
2022-08-14T19:41:35.614Z,26.29
2022-08-14T19:44:10.923Z,26.19
2022-08-14T19:47:01.666Z,26.11
2022-08-14T19:50:08.396Z,25.99
2022-08-14T19:52:30.305Z,25.89
2022-08-14T19:55:18.232Z,25.80
2022-08-14T19:57:57.861Z,25.74
2022-08-14T20:00:29.377Z,25.65
2022-08-14T20:03:10.134Z,25.59
2022-08-14T20:05:45.535Z,25.51
2022-08-14T20:10:59.870Z,25.44
2022-08-14T20:11:15.799Z,25.35
2022-08-14T20:13:46.137Z,25.28
2022-08-14T20:16:21.314Z,25.24
2022-08-14T20:19:09.001Z,25.15
2022-08-14T20:21:36.076Z,25.11
2022-08-14T20:24:30.567Z,25.08
2022-08-14T20:27:17.621Z,25.02
2022-08-14T20:30:34.648Z,24.98
2022-08-14T20:33:07.668Z,24.96
2022-08-14T20:35:39.957Z,24.93
2022-08-14T20:38:30.291Z,24.90
2022-08-14T20:41:01.916Z,24.87
2022-08-14T20:43:35.382Z,24.82
2022-08-14T20:46:14.939Z,24.77
2022-08-14T20:49:05.651Z,24.72
2022-08-14T20:51:39.122Z,24.67
2022-08-14T20:54:21.257Z,24.62
2022-08-14T20:57:10.033Z,24.56
2022-08-14T20:59:43.387Z,24.54
2022-08-14T21:02:30.382Z,24.47
2022-08-14T21:05:16.728Z,24.44
2022-08-14T21:07:50.542Z,24.40
2022-08-14T21:10:35.412Z,24.33
2022-08-14T21:14:18.676Z,24.30
2022-08-14T21:15:58.816Z,24.24
2022-08-14T21:18:32.627Z,24.21
2022-08-14T21:21:04.758Z,24.18
2022-08-14T21:23:54.540Z,24.14
2022-08-14T21:26:50.841Z,24.07
2022-08-14T21:29:11.654Z,24.03
2022-08-14T21:31:40.438Z,24.01
2022-08-14T21:34:27.565Z,23.96
2022-08-14T21:36:54.429Z,23.93
2022-08-14T21:39:22.678Z,23.89
2022-08-14T21:41:58.487Z,23.86
2022-08-14T21:44:43.117Z,23.83
2022-08-14T21:47:12.607Z,23.78
2022-08-14T21:49:39.978Z,23.77
2022-08-14T21:52:50.716Z,23.73
2022-08-14T21:55:08.732Z,23.70
2022-08-14T21:58:45.346Z,23.67
2022-08-14T22:00:35.869Z,23.64
2022-08-14T22:03:09.888Z,23.62
2022-08-14T22:05:38.742Z,23.60
2022-08-14T22:08:05.881Z,23.59
2022-08-14T22:10:34.287Z,23.57
2022-08-14T22:13:01.869Z,23.54
2022-08-14T22:15:30.257Z,23.54
2022-08-14T22:17:57.428Z,23.41
2022-08-14T22:20:26.164Z,23.50
2022-08-14T22:22:56.038Z,23.40
2022-08-14T22:25:34.065Z,23.47
2022-08-14T22:28:03.005Z,23.37
2022-08-14T22:30:30.115Z,23.44
2022-08-14T22:32:58.511Z,23.43
2022-08-14T22:35:28.029Z,23.42
2022-08-14T22:38:34.866Z,23.40
2022-08-14T22:41:09.085Z,23.36
2022-08-14T22:43:31.760Z,23.36
2022-08-14T22:46:02.249Z,23.34
2022-08-14T22:48:29.856Z,23.34
2022-08-14T22:50:56.425Z,23.33
2022-08-14T22:53:24.512Z,23.32
2022-08-14T22:55:56.428Z,23.32
2022-08-14T22:58:31.502Z,23.31
2022-08-14T23:01:10.571Z,23.31
2022-08-14T23:03:39.984Z,23.28
2022-08-14T23:07:02.192Z,23.29
2022-08-14T23:09:34.562Z,23.17
2022-08-14T23:11:43.780Z,23.28
2022-08-14T23:14:12.308Z,23.30
2022-08-14T23:16:42.393Z,23.31
2022-08-14T23:19:09.389Z,23.32
2022-08-14T23:21:35.997Z,23.32
2022-08-14T23:24:13.677Z,23.32
2022-08-14T23:26:48.124Z,23.34
2022-08-14T23:29:18.891Z,23.35
2022-08-14T23:31:45.951Z,23.36
2022-08-14T23:34:20.271Z,23.37
2022-08-14T23:36:55.458Z,23.37
2022-08-14T23:39:30.074Z,23.36
2022-08-14T23:42:02.479Z,23.37
2022-08-14T23:44:34.785Z,23.38
2022-08-14T23:47:11.911Z,23.38
2022-08-14T23:50:01.400Z,23.39
2022-08-14T23:53:07.419Z,23.38
2022-08-14T23:55:29.027Z,23.38
2022-08-14T23:57:57.645Z,23.40
